Terminal Aerodrome Forecast
Issued by NWS

Home | Current Version | Previous Version | Text Only | Print | Product List | Glossary On
Versions: 1 2 3 4 5 6 7 8 9 10 11 12 13
000
FTUS42 TJSJ 042337
TAFJSJ
TAF
TJSJ 042337Z 0500/0524 07010KT P6SM FEW025 SCT120
     FM050300 10005KT P6SM VCSH FEW025 SCT035
     FM051400 07014KT P6SM SCT030
     FM052230 09009KT P6SM FEW030 SCT070=

USA.gov is the U.S. government's official web portal to all federal, state and local government web resources and services.